Have a Safe July 4th! 

Flight Track Log - Related Links

Times and Time Zones

All times are in EDT time to prevent confusion due to time zone crossing. See the FLG3432 flight status page for this flight to view local times or setup timezone preferences in your user account.

Time Position Orientation Groundspeed Altitude Reporting Facility
EDT Latitude Longitude Course Direction KTS MPH feet Rate Location/Type
Tue 07:57:24 PM 40.7692 -111.9750 151° Southeast 165 190 5,000  Level Salt Lake Center
Tue 07:58:55 PM 40.6861 -111.9694 177° South 203 234 7,500 1,382 Climbing Salt Lake Center
Tue 07:59:56 PM 40.6158 -111.9622 176° South 266 306 8,500 1,486 Climbing Salt Lake Center
Tue 08:00:00 PM 40.3084 -111.9333 180° South  Level FlightAware Approximate
Tue 08:00:44 PM 40.5544 -111.9461 169° South 275 316 10,200  Level Salt Lake Center
Tue 08:01:00 PM 40.1988 -111.8824 150° Southeast  Level FlightAware Approximate
Tue 08:01:15 PM 40.5242 -111.9319 160° South 281 323 10,600  Level Salt Lake Center
Tue 08:02:00 PM 40.0978 -111.7984 151° Southeast  Level FlightAware Approximate
Tue 08:02:17 PM 40.4372 -111.9069 168° South 324 373 12,000  Level Salt Lake Center
Tue 08:03:19 PM 40.3464 -111.8814 168° South 336 387 13,700 1,694 Climbing Salt Lake Center
Tue 08:04:21 PM 40.2292 -111.8494 168° South 362 417 15,500 2,177 Climbing Salt Lake Center
Tue 08:05:23 PM 40.1314 -111.8192 167° South 359 413 18,200 1,984 Climbing Salt Lake Center
Tue 08:06:25 PM 40.0403 -111.7581 153° Southeast 372 428 19,600 1,016 Climbing Salt Lake Center
Tue 08:07:27 PM 39.9489 -111.6736 145° Southeast 415 478 20,300 976 Climbing Salt Lake Center
Tue 08:08:28 PM 39.8589 -111.5533 134° Southeast 435 501 21,600 1,268 Climbing Salt Lake Center
Tue 08:09:30 PM 39.7744 -111.4428 135° Southeast 446 513 22,900 1,161 Climbing Salt Lake Center
Tue 08:10:32 PM 39.6697 -111.3036 134° Southeast 461 531 24,000 1,016 Climbing Salt Lake Center
Tue 08:11:34 PM 39.5886 -111.1942 134° Southeast 461 531 25,000 1,113 Climbing Salt Lake Center
Tue 08:12:36 PM 39.4839 -111.0578 135° Southeast 476 548 26,300 1,210 Climbing Salt Lake Center
Tue 08:13:38 PM 39.3944 -110.9400 134° Southeast 479 551 27,500 1,258 Climbing Salt Lake Center
Tue 08:14:40 PM 39.2914 -110.8047 135° Southeast 475 547 28,900 1,258 Climbing Salt Lake Center
Tue 08:15:42 PM 39.2017 -110.6906 135° Southeast 474 545 30,100 1,161 Climbing Salt Lake Center
Tue 08:16:44 PM 39.0989 -110.5558 134° Southeast 473 544 31,300 1,161 Climbing Salt Lake Center
Tue 08:17:46 PM 39.0108 -110.4425 135° Southeast 470 541 32,500 1,210 Climbing Salt Lake Center
Tue 08:18:48 PM 38.9083 -110.3117 135° Southeast 468 539 33,800 726 Climbing Salt Lake Center
Tue 08:19:50 PM 38.8208 -110.2000 135° Southeast 465 535 34,000 113 Climbing Salt Lake Center
Tue 08:20:34 PM 38.7464 -110.1047 135° Southeast 464 534 34,000  Level Denver Center
Tue 08:21:36 PM 38.6586 -109.9939 135° Southeast 465 535 34,000 339 Level Denver Center
Tue 08:22:38 PM 38.5539 -109.8600 135° Southeast 474 545 34,700 662 Climbing Denver Center
Tue 08:23:52 PM 38.4622 -109.7464 136° Southeast 480 552 35,500 604 Climbing Denver Center
Tue 08:25:07 PM 38.3425 -109.5956 135° Southeast 479 551 36,200 613 Climbing Denver Center
Tue 08:26:09 PM 38.2317 -109.4286 130° Southeast 486 559 36,900 387 Climbing Denver Center
Tue 08:27:11 PM 38.1769 -109.2719 114° Southeast 507 583 37,000 48 Climbing Denver Center
Tue 08:28:13 PM 38.1147 -109.0925 114° Southeast 500 575 37,000  Level Denver Center
Tue 08:29:15 PM 38.0606 -108.9342 113° Southeast 507 583 37,000  Level Denver Center
Tue 08:30:17 PM 38.0050 -108.7736 114° Southeast 504 580 37,000  Level Denver Center
Tue 08:31:19 PM 37.9425 -108.5944 114° Southeast 499 574 37,000  Level Denver Center
Tue 08:32:21 PM 37.8883 -108.4414 114° Southeast 496 571 37,000  Level Denver Center
Tue 08:33:23 PM 37.7969 -108.2922 128° Southeast 479 551 37,000  Level Denver Center
Tue 08:34:25 PM 37.7181 -108.1650 128° Southeast 478 550 37,000  Level Denver Center
Tue 08:35:27 PM 37.6247 -108.0119 128° Southeast 486 559 37,000  Level Denver Center
Tue 08:36:29 PM 37.5453 -107.8850 128° Southeast 483 556 37,000  Level Denver Center
Tue 08:37:31 PM 37.4508 -107.7344 128° Southeast 487 560 37,000  Level Denver Center
Tue 08:38:33 PM 37.3694 -107.6075 129° Southeast 486 559 37,000  Level Denver Center
Tue 08:39:35 PM 37.2711 -107.4642 131° Southeast 485 558 37,000  Level Denver Center
Tue 08:40:37 PM 37.1717 -107.3622 141° Southeast 479 551 37,000  Level Denver Center
Tue 08:41:39 PM 37.0861 -107.2803 143° Southeast 481 554 37,000  Level Denver Center
Tue 08:42:41 PM 36.9478 -107.1506 143° Southeast 486 559 37,000  Level Denver Center
Tue 08:43:43 PM 36.8431 -107.0533 143° Southeast 488 562 37,000  Level Denver Center
Tue 08:44:45 PM 36.7206 -106.9397 143° Southeast 489 563 37,000  Level Denver Center
Tue 08:45:47 PM 36.6164 -106.8411 143° Southeast 490 564 37,000  Level Denver Center
Tue 08:46:34 PM 36.5294 -106.7619 144° Southeast 489 563 37,000  Level Albuquerque Center
Tue 08:47:36 PM 36.4078 -106.6508 144° Southeast 486 559 37,000  Level Albuquerque Center
Tue 08:48:37 PM 36.3064 -106.5486 141° Southeast 489 563 37,000  Level Albuquerque Center
Tue 08:49:39 PM 36.2433 -106.4039 118° Southeast 501 577 37,000  Level Albuquerque Center
Tue 08:50:41 PM 36.1939 -106.2197 108° East 504 580 37,000  Level Albuquerque Center
Tue 08:51:43 PM 36.1489 -106.0589 109° East 508 585 37,000  Level Albuquerque Center
Tue 08:52:44 PM 36.1050 -105.8956 108° East 503 579 37,000  Level Albuquerque Center
Tue 08:53:46 PM 36.0594 -105.7333 109° East 500 575 37,000  Level Albuquerque Center
Tue 08:54:48 PM 36.0144 -105.5719 109° East 497 572 37,000  Level Albuquerque Center
Tue 08:55:49 PM 35.9625 -105.3844 109° East 497 572 37,000  Level Albuquerque Center
Tue 08:56:51 PM 35.9144 -105.2222 110° East 498 573 37,000  Level Albuquerque Center
Tue 08:57:52 PM 35.8683 -105.0603 109° East 496 571 37,000  Level Albuquerque Center
Tue 08:58:54 PM 35.8225 -104.8969 109° East 498 573 37,000  Level Albuquerque Center
Tue 08:59:55 PM 35.7753 -104.7347 110° East 498 573 37,000  Level Albuquerque Center
Tue 09:00:57 PM 35.7283 -104.5711 109° East 500 575 37,000  Level Albuquerque Center
Tue 09:01:59 PM 35.6822 -104.4083 109° East 499 574 37,000  Level Albuquerque Center
Tue 09:03:00 PM 35.6353 -104.2464 110° East 497 572 37,000  Level Albuquerque Center
Tue 09:04:02 PM 35.5872 -104.0839 110° East 497 572 37,000  Level Albuquerque Center
Tue 09:05:03 PM 35.5403 -103.9208 109° East 498 573 37,000  Level Albuquerque Center
Tue 09:06:05 PM 35.4919 -103.7586 110° East 498 573 37,000  Level Albuquerque Center
Tue 09:07:07 PM 35.4431 -103.5964 110° East 500 575 37,000  Level Albuquerque Center
Tue 09:08:08 PM 35.3864 -103.4072 110° East 501 577 37,000  Level Albuquerque Center
Tue 09:09:10 PM 35.3378 -103.2444 110° East 502 578 37,000  Level Albuquerque Center
Tue 09:10:11 PM 35.2889 -103.0836 110° East 501 577 37,000  Level Albuquerque Center
Tue 09:11:13 PM 35.2383 -102.9203 111° Southeast 500 575 37,000  Level Albuquerque Center
Tue 09:12:14 PM 35.1881 -102.7625 111° Southeast 500 575 37,000  Level Albuquerque Center
Tue 09:13:16 PM 35.1397 -102.6050 111° Southeast 499 574 37,000  Level Albuquerque Center
Tue 09:14:17 PM 35.0903 -102.4472 111° Southeast 499 574 37,000  Level Albuquerque Center
Tue 09:15:19 PM 35.0411 -102.2914 111° Southeast 497 572 37,000  Level Albuquerque Center
Tue 09:16:20 PM 34.9922 -102.1356 111° Southeast 496 571 37,000  Level Albuquerque Center
Tue 09:17:22 PM 34.9333 -101.9497 111° Southeast 495 570 37,000  Level Albuquerque Center
Tue 09:18:23 PM 34.8844 -101.7956 111° Southeast 495 570 37,000  Level Albuquerque Center
Tue 09:19:25 PM 34.8356 -101.6419 111° Southeast 493 567 37,000  Level Albuquerque Center
Tue 09:20:26 PM 34.7875 -101.4883 111° Southeast 492 566 37,000  Level Albuquerque Center
Tue 09:21:28 PM 34.7378 -101.3358 112° Southeast 490 564 37,000  Level Albuquerque Center
Tue 09:22:29 PM 34.6889 -101.1831 111° Southeast 489 563 37,000  Level Albuquerque Center
Tue 09:23:31 PM 34.6289 -100.9997 112° Southeast 489 563 37,000  Level Albuquerque Center
Tue 09:24:32 PM 34.5803 -100.8478 111° Southeast 487 560 37,000  Level Albuquerque Center
Tue 09:25:34 PM 34.5292 -100.6961 112° Southeast 487 560 37,000  Level Albuquerque Center
Tue 09:26:35 PM 34.4792 -100.5433 112° Southeast 489 563 37,000  Level Albuquerque Center
Tue 09:27:37 PM 34.4281 -100.3894 112° Southeast 491 565 37,000  Level Albuquerque Center
Tue 09:28:38 PM 34.3769 -100.2364 112° Southeast 492 566 37,000  Level Albuquerque Center
Tue 09:29:25 PM 34.3322 -100.1044 112° Southeast 481 554 37,000  Level Fort Worth Center
Tue 09:30:25 PM 34.2811 -99.9494 112° Southeast 486 559 37,000  Level Fort Worth Center
Tue 09:31:25 PM 34.2278 -99.7947 113° Southeast 486 559 37,000  Level Fort Worth Center
Tue 09:32:25 PM 34.1744 -99.6353 112° Southeast 493 567 37,000 -300 Level Fort Worth Center
Tue 09:33:25 PM 34.1228 -99.4833 112° Southeast 493 567 36,400 -800 Descending Fort Worth Center
Tue 09:34:25 PM 34.0728 -99.3392 113° Southeast 485 558 35,400 -1,000 Descending Fort Worth Center
Tue 09:35:25 PM 34.0189 -99.1875 113° Southeast 478 550 34,400 -1,350 Descending Fort Worth Center
Tue 09:36:25 PM 33.9708 -99.0414 112° Southeast 478 550 32,700 -1,350 Descending Fort Worth Center
Tue 09:37:25 PM 33.9183 -98.8953 113° Southeast 478 550 31,700 -1,100 Descending Fort Worth Center
Tue 09:38:25 PM 33.8678 -98.7467 112° Southeast 478 550 30,500 -1,800 Descending Fort Worth Center
Tue 09:39:25 PM 33.8150 -98.5986 113° Southeast 478 550 28,100 -2,650 Descending Fort Worth Center
Tue 09:40:25 PM 33.7642 -98.4528 113° Southeast 478 550 25,200 -2,550 Descending Fort Worth Center
Tue 09:41:25 PM 33.7150 -98.3200 114° Southeast 448 516 23,000 -2,350 Descending Fort Worth Center
Tue 09:42:25 PM 33.6681 -98.1922 114° Southeast 428 493 20,500 -2,450 Descending Fort Worth Center
Tue 09:43:25 PM 33.6247 -98.0694 113° Southeast 405 466 18,100 -2,400 Descending Fort Worth Center
Tue 09:44:25 PM 33.5628 -97.9619 125° Southeast 391 450 15,700 -1,900 Descending Fort Worth Center
Tue 09:45:25 PM 33.5089 -97.8644 124° Southeast 370 426 14,300 -1,500 Descending Fort Worth Center
Tue 09:46:25 PM 33.4592 -97.7769 124° Southeast 333 383 12,700 -1,600 Descending Fort Worth Center
Tue 09:47:25 PM 33.4114 -97.6922 124° Southeast 310 357 11,100 -1,500 Descending Fort Worth Center
Tue 09:48:25 PM 33.3656 -97.6250 129° Southeast 304 350 9,700 -1,500 Descending Fort Worth Center
Tue 09:49:25 PM 33.3092 -97.5575 135° Southeast 288 331 8,100 -950 Descending Fort Worth Center
Tue 09:50:25 PM 33.2486 -97.4856 135° Southeast 282 325 7,800 -1,000 Descending Fort Worth Center
Tue 09:51:25 PM 33.2217 -97.4108 113° Southeast 269 310 6,100 -1,650 Descending Fort Worth Center
Tue 09:52:25 PM 33.2008 -97.3167 105° East 269 310 4,500 -1,050 Descending Fort Worth Center
Tue 09:53:25 PM 33.1819 -97.2422 107° East 258 297 4,000 -250 Descending Fort Worth Center
Tue 09:54:25 PM 33.1275 -97.1728 133° Southeast 247 284 4,000 -450 Level Fort Worth Center
Tue 09:55:25 PM 33.0836 -97.1183 134° Southeast 253 291 3,100 -750 Descending Fort Worth Center
Tue 09:56:25 PM 33.0311 -97.0714 143° Southeast 230 265 2,500 -550 Descending Fort Worth Center
Tue 09:57:25 PM 32.9914 -97.0544 160° South 200 230 2,000 -550 Descending Fort Worth Center
Tue 09:58:25 PM 32.9539 -97.0569 183° South 159 183 1,400 -650 Descending Fort Worth Center
Tue 09:59:25 PM 32.9142 -97.0547 177° South 149 171 700 -700 Descending Fort Worth Center

Login

Don't have an account? Register now (free) for customized features, flight alerts, and more!